Main page
METAR-TAF:

METAR-TAF

Airports :

Tashkent International Airport

Tashkent, Uzbekistan

latitude: 41-16N, longitude: 069-16E, elevation: 489 m

Current weather observation

The report was made 39 minutes ago, at 01:00 UTC
Wind 8 kt from the East
Temperature 22°C
Humidity 53%
Pressure 1009 hPa
Visibility 10 km or more
no clouds below 1500 m and no cumulonimbus

METAR: UTTT 150100Z 09008KT CAVOK 22/12 Q1009 R08R/CLRD70 NOSIG

Time: 06:39 (01:39 UTC)

Forecast

The report was made 2 hours and 39 minutes ago, at 23:00 UTC
Forecast valid from 15 at 00 UTC to 15 at 24 UTC
Wind 10 kt from the Southwest
Visibility: 7000 m
Temporary
from 15 at 06 UTC to 15 at 16 UTC
Wind 15 kt from the West/Northwest

TAF: UTTT 142300Z 1500/1524 22010KT 7000 NSC TX37/1510Z TEMPO 1506/1516 30015KT

Weather observations and forecasts of more than 4000 airports (METAR and TAF reports).

The available stations are represented by yellow and red dots on the map.

Hover mouse over dot to see the name of the station.

Then click to see weather observations and forecasts.

To change the map : click on the green buttons with a black cross to zoom in, on the green button with a dash to zoom out, or on the green arrows for adjacent maps.


METAR-TAF: